sensor_id;sensor_type;location;lat;lon;timestamp;pressure;altitude;pressure_sealevel;temperature;humidity
43119;BME280;28729;49.838;8.650;2023-07-09T00:03:11;100007.25;;;21.30;77.28
43119;BME280;28729;49.838;8.650;2023-07-09T00:07:24;100003.59;;;21.29;77.62
43119;BME280;28729;49.838;8.650;2023-07-09T00:11:28;100005.91;;;21.27;77.23
43119;BME280;28729;49.838;8.650;2023-07-09T00:15:29;100016.59;;;21.25;77.08
43119;BME280;28729;49.838;8.650;2023-07-09T00:19:31;100016.06;;;21.23;77.41
43119;BME280;28729;49.838;8.650;2023-07-09T00:23:33;100018.66;;;21.20;77.68
43119;BME280;28729;49.838;8.650;2023-07-09T00:27:35;100020.97;;;21.17;77.02
43119;BME280;28729;49.838;8.650;2023-07-09T00:31:37;100019.63;;;21.15;76.57
43119;BME280;28729;49.838;8.650;2023-07-09T00:35:47;100021.91;;;21.13;77.12
43119;BME280;28729;49.838;8.650;2023-07-09T00:43:52;100023.06;;;21.12;77.47
43119;BME280;28729;49.838;8.650;2023-07-09T00:47:56;100016.94;;;21.10;77.21
43119;BME280;28729;49.838;8.650;2023-07-09T00:52:07;100028.44;;;21.08;77.87
43119;BME280;28729;49.838;8.650;2023-07-09T00:56:29;100029.09;;;21.05;78.16
43119;BME280;28729;49.838;8.650;2023-07-09T01:00:37;100036.13;;;21.03;79.40
43119;BME280;28729;49.838;8.650;2023-07-09T01:04:48;100037.91;;;20.99;79.87
43119;BME280;28729;49.838;8.650;2023-07-09T01:08:51;100044.16;;;20.96;80.49
43119;BME280;28729;49.838;8.650;2023-07-09T01:12:55;100041.97;;;20.92;81.18
43119;BME280;28729;49.838;8.650;2023-07-09T01:17:00;100041.44;;;20.90;80.97
43119;BME280;28729;49.838;8.650;2023-07-09T01:21:08;100047.06;;;20.90;80.88
43119;BME280;28729;49.838;8.650;2023-07-09T01:25:16;100049.38;;;20.88;81.46
43119;BME280;28729;49.838;8.650;2023-07-09T01:29:18;100047.19;;;20.85;82.12
43119;BME280;28729;49.838;8.650;2023-07-09T01:33:21;100043.84;;;20.83;83.33
43119;BME280;28729;49.838;8.650;2023-07-09T01:37:26;100053.09;;;20.84;83.42
43119;BME280;28729;49.838;8.650;2023-07-09T01:41:29;100057.03;;;20.83;83.55
43119;BME280;28729;49.838;8.650;2023-07-09T01:45:32;100059.00;;;20.82;83.77
43119;BME280;28729;49.838;8.650;2023-07-09T01:49:34;100052.88;;;20.80;84.03
43119;BME280;28729;49.838;8.650;2023-07-09T01:53:38;100054.03;;;20.79;83.96
43119;BME280;28729;49.838;8.650;2023-07-09T01:57:43;100061.28;;;20.80;83.84
43119;BME280;28729;49.838;8.650;2023-07-09T02:01:44;100057.13;;;20.78;83.29
43119;BME280;28729;49.838;8.650;2023-07-09T02:05:46;100054.34;;;20.78;83.29
43119;BME280;28729;49.838;8.650;2023-07-09T02:09:49;100052.97;;;20.75;83.94
43119;BME280;28729;49.838;8.650;2023-07-09T02:13:51;100055.25;;;20.73;84.28
43119;BME280;28729;49.838;8.650;2023-07-09T02:17:53;100056.41;;;20.72;84.73
43119;BME280;28729;49.838;8.650;2023-07-09T02:21:56;100055.88;;;20.70;85.88
43119;BME280;28729;49.838;8.650;2023-07-09T02:25:57;100054.56;;;20.67;86.65
43119;BME280;28729;49.838;8.650;2023-07-09T02:29:59;100053.22;;;20.65;87.68
43119;BME280;28729;49.838;8.650;2023-07-09T02:34:01;100059.44;;;20.62;88.75
43119;BME280;28729;49.838;8.650;2023-07-09T02:42:25;100056.19;;;20.55;89.29
43119;BME280;28729;49.838;8.650;2023-07-09T02:47:32;100055.13;;;20.51;91.97
43119;BME280;28729;49.838;8.650;2023-07-09T02:52:24;100061.03;;;20.49;92.71
43119;BME280;28729;49.838;8.650;2023-07-09T02:57:12;100058.56;;;20.47;93.21
43119;BME280;28729;49.838;8.650;2023-07-09T03:02:10;100061.66;;;20.46;93.66
43119;BME280;28729;49.838;8.650;2023-07-09T03:07:05;100067.03;;;20.42;95.23
43119;BME280;28729;49.838;8.650;2023-07-09T03:11:23;100077.72;;;20.40;96.03
43119;BME280;28729;49.838;8.650;2023-07-09T03:16:13;100075.53;;;20.37;97.07
43119;BME280;28729;49.838;8.650;2023-07-09T03:20:41;100081.75;;;20.34;97.54
43119;BME280;28729;49.838;8.650;2023-07-09T03:24:46;100079.28;;;20.33;98.29
43119;BME280;28729;49.838;8.650;2023-07-09T03:28:51;100079.56;;;20.31;98.87
43119;BME280;28729;49.838;8.650;2023-07-09T03:32:54;100077.38;;;20.28;99.21
43119;BME280;28729;49.838;8.650;2023-07-09T03:37:01;100085.28;;;20.26;99.11
43119;BME280;28729;49.838;8.650;2023-07-09T03:41:13;100091.16;;;20.24;99.70
43119;BME280;28729;49.838;8.650;2023-07-09T03:46:12;100097.38;;;20.21;99.95
43119;BME280;28729;49.838;8.650;2023-07-09T03:50:25;100102.16;;;20.21;99.43
43119;BME280;28729;49.838;8.650;2023-07-09T04:00:34;100113.63;;;20.19;98.43
43119;BME280;28729;49.838;8.650;2023-07-09T04:10:44;100110.53;;;20.21;99.52
43119;BME280;28729;49.838;8.650;2023-07-09T04:20:18;100121.75;;;20.21;98.75
43119;BME280;28729;49.838;8.650;2023-07-09T04:24:26;100115.00;;;20.22;98.76
43119;BME280;28729;49.838;8.650;2023-07-09T04:28:29;100116.34;;;20.24;99.07
43119;BME280;28729;49.838;8.650;2023-07-09T04:32:35;100109.94;;;20.24;99.70
43119;BME280;28729;49.838;8.650;2023-07-09T04:36:41;100115.44;;;20.29;99.96
43119;BME280;28729;49.838;8.650;2023-07-09T05:01:30;100106.16;;;20.47;100.00
43119;BME280;28729;49.838;8.650;2023-07-09T05:06:06;100112.19;;;20.55;100.00
43119;BME280;28729;49.838;8.650;2023-07-09T05:16:08;100120.91;;;20.67;100.00
43119;BME280;28729;49.838;8.650;2023-07-09T05:30:51;100122.38;;;20.92;98.16
43119;BME280;28729;49.838;8.650;2023-07-09T05:35:25;100128.50;;;21.08;97.88
43119;BME280;28729;49.838;8.650;2023-07-09T05:40:20;100122.06;;;21.21;97.30
43119;BME280;28729;49.838;8.650;2023-07-09T05:44:38;100125.66;;;21.35;96.39
43119;BME280;28729;49.838;8.650;2023-07-09T05:49:11;100118.59;;;21.52;95.84
43119;BME280;28729;49.838;8.650;2023-07-09T05:53:39;100119.41;;;21.66;95.33
43119;BME280;28729;49.838;8.650;2023-07-09T05:58:51;100122.34;;;21.83;95.44
43119;BME280;28729;49.838;8.650;2023-07-09T06:04:03;100130.56;;;22.02;94.23
43119;BME280;28729;49.838;8.650;2023-07-09T06:08:44;100136.53;;;22.23;92.69
43119;BME280;28729;49.838;8.650;2023-07-09T06:18:44;100133.78;;;22.63;89.73
43119;BME280;28729;49.838;8.650;2023-07-09T06:22:46;100140.31;;;22.81;88.44
43119;BME280;28729;49.838;8.650;2023-07-09T06:26:48;100141.22;;;22.99;87.15
43119;BME280;28729;49.838;8.650;2023-07-09T06:36:01;100143.19;;;23.38;83.09
43119;BME280;28729;49.838;8.650;2023-07-09T06:40:12;100160.25;;;23.59;81.16
43119;BME280;28729;49.838;8.650;2023-07-09T06:44:32;100147.75;;;23.83;79.51
43119;BME280;28729;49.838;8.650;2023-07-09T06:49:22;100151.53;;;24.04;78.32
43119;BME280;28729;49.838;8.650;2023-07-09T06:53:38;100155.81;;;24.28;76.55
43119;BME280;28729;49.838;8.650;2023-07-09T06:57:52;100153.63;;;24.51;75.29
43119;BME280;28729;49.838;8.650;2023-07-09T07:02:13;100155.91;;;24.75;73.75
43119;BME280;28729;49.838;8.650;2023-07-09T07:06:18;100158.28;;;25.02;73.07
43119;BME280;28729;49.838;8.650;2023-07-09T07:10:23;100156.19;;;25.29;72.01
43119;BME280;28729;49.838;8.650;2023-07-09T07:19:38;100150.16;;;25.90;68.55
43119;BME280;28729;49.838;8.650;2023-07-09T07:23:40;100142.16;;;26.13;68.11
43119;BME280;28729;49.838;8.650;2023-07-09T07:27:42;100143.41;;;26.36;66.04
43119;BME280;28729;49.838;8.650;2023-07-09T07:31:44;100136.22;;;26.60;65.00
43119;BME280;28729;49.838;8.650;2023-07-09T07:35:46;100137.66;;;26.91;62.69
43119;BME280;28729;49.838;8.650;2023-07-09T07:40:09;100137.06;;;27.10;61.16
43119;BME280;28729;49.838;8.650;2023-07-09T07:44:11;100140.75;;;27.35;59.82
43119;BME280;28729;49.838;8.650;2023-07-09T07:48:13;100138.56;;;27.68;57.91
43119;BME280;28729;49.838;8.650;2023-07-09T07:52:15;100137.00;;;27.95;57.89
43119;BME280;28729;49.838;8.650;2023-07-09T07:56:17;100140.75;;;28.28;55.54
43119;BME280;28729;49.838;8.650;2023-07-09T08:00:18;100138.78;;;28.56;55.00
43119;BME280;28729;49.838;8.650;2023-07-09T08:04:21;100130.09;;;28.81;53.10
43119;BME280;28729;49.838;8.650;2023-07-09T08:08:23;100127.00;;;29.02;51.58
43119;BME280;28729;49.838;8.650;2023-07-09T08:12:25;100117.00;;;29.24;51.78
43119;BME280;28729;49.838;8.650;2023-07-09T08:16:27;100134.63;;;29.49;50.58
43119;BME280;28729;49.838;8.650;2023-07-09T08:20:29;100130.00;;;29.76;50.81
43119;BME280;28729;49.838;8.650;2023-07-09T08:24:32;100131.38;;;30.02;49.68
43119;BME280;28729;49.838;8.650;2023-07-09T08:32:56;100122.84;;;30.21;49.33
43119;BME280;28729;49.838;8.650;2023-07-09T08:37:14;100110.09;;;30.54;48.74
43119;BME280;28729;49.838;8.650;2023-07-09T08:51:21;100115.41;;;31.24;46.40
43119;BME280;28729;49.838;8.650;2023-07-09T09:05:20;100113.84;;;31.84;44.89
43119;BME280;28729;49.838;8.650;2023-07-09T09:10:01;100111.72;;;32.07;44.53
43119;BME280;28729;49.838;8.650;2023-07-09T09:18:43;100110.31;;;32.61;41.97
43119;BME280;28729;49.838;8.650;2023-07-09T09:23:57;100106.03;;;32.82;41.59
43119;BME280;28729;49.838;8.650;2023-07-09T09:28:04;100106.72;;;33.12;40.68
43119;BME280;28729;49.838;8.650;2023-07-09T09:37:12;100098.94;;;33.65;38.81
43119;BME280;28729;49.838;8.650;2023-07-09T09:41:24;100094.50;;;33.81;38.31
43119;BME280;28729;49.838;8.650;2023-07-09T09:45:38;100102.78;;;34.01;38.49
43119;BME280;28729;49.838;8.650;2023-07-09T09:50:15;100101.19;;;34.07;36.44
43119;BME280;28729;49.838;8.650;2023-07-09T09:54:34;100111.47;;;34.26;35.86
43119;BME280;28729;49.838;8.650;2023-07-09T09:58:39;100110.75;;;34.54;36.46
43119;BME280;28729;49.838;8.650;2023-07-09T10:02:43;100112.00;;;34.78;35.16
43119;BME280;28729;49.838;8.650;2023-07-09T10:06:53;100104.28;;;35.11;34.15
43119;BME280;28729;49.838;8.650;2023-07-09T10:11:08;100106.72;;;35.34;33.01
43119;BME280;28729;49.838;8.650;2023-07-09T10:24:02;100079.28;;;35.29;33.03
43119;BME280;28729;49.838;8.650;2023-07-09T10:40:52;100059.38;;;36.14;29.54
43119;BME280;28729;49.838;8.650;2023-07-09T10:45:00;100060.56;;;36.20;28.93
43119;BME280;28729;49.838;8.650;2023-07-09T10:49:04;100058.44;;;36.31;29.16
43119;BME280;28729;49.838;8.650;2023-07-09T10:53:30;100048.16;;;36.37;29.54
43119;BME280;28729;49.838;8.650;2023-07-09T10:57:46;100041.88;;;36.60;28.95
43119;BME280;28729;49.838;8.650;2023-07-09T11:01:58;100033.16;;;36.75;29.54
43119;BME280;28729;49.838;8.650;2023-07-09T11:06:03;100029.22;;;36.99;27.41
43119;BME280;28729;49.838;8.650;2023-07-09T11:18:58;100026.06;;;37.66;25.86
43119;BME280;28729;49.838;8.650;2023-07-09T11:23:15;100026.50;;;37.64;26.46
43119;BME280;28729;49.838;8.650;2023-07-09T11:27:26;100010.38;;;37.74;26.19
43119;BME280;28729;49.838;8.650;2023-07-09T11:31:39;100013.47;;;37.86;25.97
43119;BME280;28729;49.838;8.650;2023-07-09T11:35:50;100009.81;;;38.17;25.37
43119;BME280;28729;49.838;8.650;2023-07-09T11:39:53;99996.66;;;38.16;24.82
43119;BME280;28729;49.838;8.650;2023-07-09T11:44:21;99989.94;;;37.99;25.63
43119;BME280;28729;49.838;8.650;2023-07-09T11:48:25;99993.22;;;38.24;25.02
43119;BME280;28729;49.838;8.650;2023-07-09T11:52:33;99991.13;;;38.56;24.64
43119;BME280;28729;49.838;8.650;2023-07-09T11:56:35;99980.84;;;38.78;24.20
43119;BME280;28729;49.838;8.650;2023-07-09T12:00:40;99986.75;;;38.94;24.37
43119;BME280;28729;49.838;8.650;2023-07-09T12:04:42;99982.41;;;39.06;24.48
43119;BME280;28729;49.838;8.650;2023-07-09T12:08:46;99983.81;;;38.98;24.96
43119;BME280;28729;49.838;8.650;2023-07-09T12:12:53;99975.66;;;38.93;24.57
43119;BME280;28729;49.838;8.650;2023-07-09T12:16:57;99962.19;;;39.10;24.20
43119;BME280;28729;49.838;8.650;2023-07-09T12:20:59;99965.28;;;39.59;23.82
43119;BME280;28729;49.838;8.650;2023-07-09T12:25:00;99965.88;;;40.43;23.07
43119;BME280;28729;49.838;8.650;2023-07-09T12:29:02;99951.03;;;41.35;22.14
43119;BME280;28729;49.838;8.650;2023-07-09T12:33:06;99946.28;;;42.09;21.41
43119;BME280;28729;49.838;8.650;2023-07-09T12:37:14;99939.78;;;42.56;20.31
43119;BME280;28729;49.838;8.650;2023-07-09T12:41:35;99932.53;;;43.21;19.59
43119;BME280;28729;49.838;8.650;2023-07-09T12:45:39;99921.34;;;43.85;18.90
43119;BME280;28729;49.838;8.650;2023-07-09T12:49:43;99915.69;;;44.22;19.15
43119;BME280;28729;49.838;8.650;2023-07-09T12:53:46;99915.50;;;44.94;18.08
43119;BME280;28729;49.838;8.650;2023-07-09T12:57:48;99904.81;;;45.55;17.72
43119;BME280;28729;49.838;8.650;2023-07-09T13:02:16;99889.25;;;45.67;17.28
43119;BME280;28729;49.838;8.650;2023-07-09T13:06:30;99892.19;;;45.49;18.15
43119;BME280;28729;49.838;8.650;2023-07-09T13:10:42;99879.53;;;46.04;17.22
43119;BME280;28729;49.838;8.650;2023-07-09T13:14:52;99879.28;;;46.74;16.38
43119;BME280;28729;49.838;8.650;2023-07-09T13:18:54;99868.53;;;47.34;16.31
43119;BME280;28729;49.838;8.650;2023-07-09T13:22:57;99858.84;;;47.87;15.91
43119;BME280;28729;49.838;8.650;2023-07-09T13:27:00;99861.19;;;48.38;15.58
43119;BME280;28729;49.838;8.650;2023-07-09T13:31:14;99847.69;;;48.62;15.20
43119;BME280;28729;49.838;8.650;2023-07-09T13:35:19;99851.56;;;48.53;15.25
43119;BME280;28729;49.838;8.650;2023-07-09T13:39:22;99852.41;;;48.38;14.74
43119;BME280;28729;49.838;8.650;2023-07-09T13:43:32;99856.44;;;48.41;15.16
43119;BME280;28729;49.838;8.650;2023-07-09T13:47:34;99848.78;;;48.44;15.25
43119;BME280;28729;49.838;8.650;2023-07-09T13:51:43;99839.59;;;48.97;14.36
43119;BME280;28729;49.838;8.650;2023-07-09T13:55:46;99854.53;;;48.79;14.03
43119;BME280;28729;49.838;8.650;2023-07-09T13:59:48;99842.59;;;49.03;13.92
43119;BME280;28729;49.838;8.650;2023-07-09T14:03:57;99845.91;;;49.16;14.04
43119;BME280;28729;49.838;8.650;2023-07-09T14:08:02;99846.38;;;49.09;13.81
43119;BME280;28729;49.838;8.650;2023-07-09T14:12:07;99835.25;;;48.46;13.73
43119;BME280;28729;49.838;8.650;2023-07-09T14:16:13;99841.84;;;47.56;13.93
43119;BME280;28729;49.838;8.650;2023-07-09T14:20:17;99845.59;;;46.73;14.96
43119;BME280;28729;49.838;8.650;2023-07-09T14:24:20;99834.66;;;46.68;15.23
43119;BME280;28729;49.838;8.650;2023-07-09T14:28:22;99828.16;;;46.64;14.77
43119;BME280;28729;49.838;8.650;2023-07-09T14:32:35;99828.13;;;46.25;15.05
43119;BME280;28729;49.838;8.650;2023-07-09T14:36:40;99828.31;;;45.45;15.20
43119;BME280;28729;49.838;8.650;2023-07-09T14:40:43;99828.28;;;44.94;15.85
43119;BME280;28729;49.838;8.650;2023-07-09T14:44:45;99830.56;;;44.80;15.70
43119;BME280;28729;49.838;8.650;2023-07-09T14:48:49;99835.06;;;44.35;16.29
43119;BME280;28729;49.838;8.650;2023-07-09T14:52:53;99823.34;;;43.99;16.63
43119;BME280;28729;49.838;8.650;2023-07-09T14:56:57;99828.91;;;43.43;17.45
43119;BME280;28729;49.838;8.650;2023-07-09T15:01:02;99817.22;;;43.34;17.20
43119;BME280;28729;49.838;8.650;2023-07-09T15:05:11;99799.28;;;43.17;17.02
43119;BME280;28729;49.838;8.650;2023-07-09T15:09:13;99812.59;;;42.71;17.39
43119;BME280;28729;49.838;8.650;2023-07-09T15:13:24;99806.69;;;42.96;17.51
43119;BME280;28729;49.838;8.650;2023-07-09T15:17:27;99800.06;;;43.49;17.05
43119;BME280;28729;49.838;8.650;2023-07-09T15:21:29;99799.16;;;44.02;16.66
43119;BME280;28729;49.838;8.650;2023-07-09T15:25:32;99799.72;;;43.87;16.12
43119;BME280;28729;49.838;8.650;2023-07-09T15:29:34;99797.31;;;42.92;16.89
43119;BME280;28729;49.838;8.650;2023-07-09T15:33:36;99795.00;;;41.96;17.48
43119;BME280;28729;49.838;8.650;2023-07-09T15:37:38;99795.66;;;41.10;17.69
43119;BME280;28729;49.838;8.650;2023-07-09T15:41:40;99802.91;;;40.44;17.93
43119;BME280;28729;49.838;8.650;2023-07-09T15:45:44;99809.63;;;39.92;18.95
43119;BME280;28729;49.838;8.650;2023-07-09T15:49:47;99814.25;;;39.36;19.07
43119;BME280;28729;49.838;8.650;2023-07-09T15:53:48;99808.72;;;39.06;19.57
43119;BME280;28729;49.838;8.650;2023-07-09T15:57:52;99818.63;;;38.85;19.74
43119;BME280;28729;49.838;8.650;2023-07-09T16:01:55;99808.09;;;38.55;20.20
43119;BME280;28729;49.838;8.650;2023-07-09T16:05:57;99813.94;;;38.27;19.77
43119;BME280;28729;49.838;8.650;2023-07-09T16:09:58;99817.63;;;38.04;20.68
43119;BME280;28729;49.838;8.650;2023-07-09T16:14:00;99810.41;;;37.93;20.83
43119;BME280;28729;49.838;8.650;2023-07-09T16:18:04;99807.25;;;37.87;21.10
43119;BME280;28729;49.838;8.650;2023-07-09T16:22:11;99795.63;;;37.94;20.98
43119;BME280;28729;49.838;8.650;2023-07-09T16:26:15;99795.63;;;37.94;20.95
43119;BME280;28729;49.838;8.650;2023-07-09T16:30:21;99805.78;;;37.75;21.05
43119;BME280;28729;49.838;8.650;2023-07-09T16:34:25;99809.38;;;37.56;21.83
43119;BME280;28729;49.838;8.650;2023-07-09T16:38:27;99799.13;;;37.55;21.51
43119;BME280;28729;49.838;8.650;2023-07-09T16:42:29;99798.91;;;37.69;21.39
43119;BME280;28729;49.838;8.650;2023-07-09T16:46:32;99796.59;;;37.60;21.34
43119;BME280;28729;49.838;8.650;2023-07-09T16:50:34;99790.25;;;37.42;21.84
43119;BME280;28729;49.838;8.650;2023-07-09T16:54:35;99782.41;;;37.19;21.94
43119;BME280;28729;49.838;8.650;2023-07-09T16:58:37;99784.59;;;37.08;21.77
43119;BME280;28729;49.838;8.650;2023-07-09T17:02:39;99775.72;;;36.95;22.62
43119;BME280;28729;49.838;8.650;2023-07-09T17:06:42;99773.03;;;36.81;22.67
43119;BME280;28729;49.838;8.650;2023-07-09T17:10:44;99761.03;;;36.55;23.65
43119;BME280;28729;49.838;8.650;2023-07-09T17:14:47;99757.53;;;36.37;23.88
43119;BME280;28729;49.838;8.650;2023-07-09T17:18:49;99770.97;;;36.02;24.26
43119;BME280;28729;49.838;8.650;2023-07-09T17:22:52;99766.03;;;35.61;25.18
43119;BME280;28729;49.838;8.650;2023-07-09T17:26:56;99773.66;;;35.19;26.11
43119;BME280;28729;49.838;8.650;2023-07-09T17:30:59;99764.38;;;34.90;26.50
43119;BME280;28729;49.838;8.650;2023-07-09T17:35:01;99775.53;;;34.66;26.61
43119;BME280;28729;49.838;8.650;2023-07-09T17:39:03;99773.50;;;34.53;27.42
43119;BME280;28729;49.838;8.650;2023-07-09T17:43:12;99772.72;;;34.41;27.95
43119;BME280;28729;49.838;8.650;2023-07-09T17:47:17;99764.16;;;34.23;27.84
43119;BME280;28729;49.838;8.650;2023-07-09T17:51:20;99775.25;;;34.07;28.07
43119;BME280;28729;49.838;8.650;2023-07-09T17:55:23;99778.91;;;33.86;28.63
43119;BME280;28729;49.838;8.650;2023-07-09T17:59:26;99782.16;;;33.67;29.28
43119;BME280;28729;49.838;8.650;2023-07-09T18:03:33;99786.22;;;33.41;29.73
43119;BME280;28729;49.838;8.650;2023-07-09T18:07:35;99785.34;;;33.22;30.42
43119;BME280;28729;49.838;8.650;2023-07-09T18:11:36;99785.28;;;33.01;30.21
43119;BME280;28729;49.838;8.650;2023-07-09T18:15:41;99786.81;;;32.84;30.46
43119;BME280;28729;49.838;8.650;2023-07-09T18:19:44;99788.78;;;32.65;31.06
43119;BME280;28729;49.838;8.650;2023-07-09T18:23:46;99788.66;;;32.44;31.14
43119;BME280;28729;49.838;8.650;2023-07-09T18:27:54;99794.25;;;32.30;31.84
43119;BME280;28729;49.838;8.650;2023-07-09T18:31:57;99779.88;;;32.08;32.28
43119;BME280;28729;49.838;8.650;2023-07-09T18:36:01;99782.09;;;31.85;33.40
43119;BME280;28729;49.838;8.650;2023-07-09T18:40:03;99783.94;;;31.59;33.33
43119;BME280;28729;49.838;8.650;2023-07-09T18:44:31;99785.75;;;31.37;34.20
43119;BME280;28729;49.838;8.650;2023-07-09T18:48:36;99780.19;;;31.14;35.19
43119;BME280;28729;49.838;8.650;2023-07-09T18:52:38;99781.16;;;30.92;35.42
43119;BME280;28729;49.838;8.650;2023-07-09T18:56:40;99793.09;;;30.74;35.63
43119;BME280;28729;49.838;8.650;2023-07-09T19:00:43;99795.28;;;30.54;36.33
43119;BME280;28729;49.838;8.650;2023-07-09T19:04:46;99793.31;;;30.28;36.88
43119;BME280;28729;49.838;8.650;2023-07-09T19:08:48;99790.34;;;29.98;38.26
43119;BME280;28729;49.838;8.650;2023-07-09T19:12:52;99795.94;;;29.68;38.99
43119;BME280;28729;49.838;8.650;2023-07-09T19:16:57;99803.19;;;29.42;40.35
43119;BME280;28729;49.838;8.650;2023-07-09T19:21:00;99794.63;;;29.19;41.61
43119;BME280;28729;49.838;8.650;2023-07-09T19:25:19;99800.22;;;28.96;42.14
43119;BME280;28729;49.838;8.650;2023-07-09T19:29:23;99802.97;;;28.73;42.66
43119;BME280;28729;49.838;8.650;2023-07-09T19:33:31;99814.69;;;28.52;43.81
43119;BME280;28729;49.838;8.650;2023-07-09T19:37:35;99821.03;;;28.30;44.48
43119;BME280;28729;49.838;8.650;2023-07-09T19:41:39;99827.84;;;28.09;45.12
43119;BME280;28729;49.838;8.650;2023-07-09T19:45:46;99810.88;;;27.93;45.29
43119;BME280;28729;49.838;8.650;2023-07-09T19:49:56;99815.44;;;27.82;45.29
43119;BME280;28729;49.838;8.650;2023-07-09T19:53:59;99815.34;;;27.79;45.23
43119;BME280;28729;49.838;8.650;2023-07-09T19:58:01;99808.28;;;27.72;45.20
43119;BME280;28729;49.838;8.650;2023-07-09T20:02:17;99805.44;;;27.57;45.92
43119;BME280;28729;49.838;8.650;2023-07-09T20:06:20;99814.09;;;27.48;46.56
43119;BME280;28729;49.838;8.650;2023-07-09T20:10:22;99823.69;;;27.43;47.62
43119;BME280;28729;49.838;8.650;2023-07-09T20:14:24;99819.13;;;27.39;48.05
43119;BME280;28729;49.838;8.650;2023-07-09T20:18:26;99814.19;;;27.36;48.42
43119;BME280;28729;49.838;8.650;2023-07-09T20:22:29;99823.31;;;27.29;48.32
43119;BME280;28729;49.838;8.650;2023-07-09T20:26:32;99821.13;;;27.22;48.83
43119;BME280;28729;49.838;8.650;2023-07-09T20:30:34;99819.22;;;27.14;49.24
43119;BME280;28729;49.838;8.650;2023-07-09T20:34:37;99824.31;;;27.09;49.49
43119;BME280;28729;49.838;8.650;2023-07-09T20:38:39;99822.84;;;26.99;50.19
43119;BME280;28729;49.838;8.650;2023-07-09T20:42:41;99829.47;;;26.91;50.34
43119;BME280;28729;49.838;8.650;2023-07-09T20:46:43;99833.53;;;26.77;50.35
43119;BME280;28729;49.838;8.650;2023-07-09T20:50:46;99831.91;;;26.64;51.66
43119;BME280;28729;49.838;8.650;2023-07-09T20:54:47;99830.03;;;26.44;52.55
43119;BME280;28729;49.838;8.650;2023-07-09T20:58:49;99825.00;;;26.25;53.83
43119;BME280;28729;49.838;8.650;2023-07-09T21:02:51;99830.56;;;26.09;55.18
43119;BME280;28729;49.838;8.650;2023-07-09T21:06:53;99838.44;;;25.91;55.17
43119;BME280;28729;49.838;8.650;2023-07-09T21:10:55;99839.94;;;25.76;56.59
43119;BME280;28729;49.838;8.650;2023-07-09T21:14:57;99832.97;;;25.61;57.47
43119;BME280;28729;49.838;8.650;2023-07-09T21:18:58;99840.25;;;25.50;57.99
43119;BME280;28729;49.838;8.650;2023-07-09T21:23:00;99840.81;;;25.43;58.98
43119;BME280;28729;49.838;8.650;2023-07-09T21:27:02;99837.72;;;25.36;59.23
43119;BME280;28729;49.838;8.650;2023-07-09T21:31:05;99845.59;;;25.31;59.75
43119;BME280;28729;49.838;8.650;2023-07-09T21:39:21;99851.81;;;25.24;61.05
43119;BME280;28729;49.838;8.650;2023-07-09T21:43:23;99860.84;;;25.17;61.69
43119;BME280;28729;49.838;8.650;2023-07-09T21:47:25;99856.88;;;25.10;62.17
43119;BME280;28729;49.838;8.650;2023-07-09T21:51:29;99864.53;;;25.09;62.80
43119;BME280;28729;49.838;8.650;2023-07-09T21:55:31;99860.19;;;25.12;62.74
43119;BME280;28729;49.838;8.650;2023-07-09T21:59:33;99857.88;;;25.14;62.74
43119;BME280;28729;49.838;8.650;2023-07-09T22:03:35;99862.34;;;25.15;63.06
43119;BME280;28729;49.838;8.650;2023-07-09T22:07:41;99878.91;;;25.16;63.35
43119;BME280;28729;49.838;8.650;2023-07-09T22:11:43;99878.91;;;25.16;63.70
43119;BME280;28729;49.838;8.650;2023-07-09T22:15:51;99884.53;;;25.16;64.00
43119;BME280;28729;49.838;8.650;2023-07-09T22:19:57;99891.03;;;25.17;64.73
43119;BME280;28729;49.838;8.650;2023-07-09T22:24:02;99896.34;;;25.10;64.97
43119;BME280;28729;49.838;8.650;2023-07-09T22:28:04;99911.22;;;24.98;66.09
43119;BME280;28729;49.838;8.650;2023-07-09T22:32:06;99915.91;;;24.94;66.68
43119;BME280;28729;49.838;8.650;2023-07-09T22:36:13;99928.47;;;24.96;66.59
43119;BME280;28729;49.838;8.650;2023-07-09T22:40:18;99923.47;;;25.02;66.08
43119;BME280;28729;49.838;8.650;2023-07-09T22:44:20;99918.91;;;25.10;65.62
43119;BME280;28729;49.838;8.650;2023-07-09T22:48:22;99904.13;;;25.13;65.52
43119;BME280;28729;49.838;8.650;2023-07-09T22:52:24;99910.13;;;25.11;65.44
43119;BME280;28729;49.838;8.650;2023-07-09T22:56:26;99914.66;;;25.04;66.36
43119;BME280;28729;49.838;8.650;2023-07-09T23:00:29;99916.84;;;24.98;66.70
43119;BME280;28729;49.838;8.650;2023-07-09T23:04:32;99917.59;;;24.86;68.42
43119;BME280;28729;49.838;8.650;2023-07-09T23:08:34;99919.88;;;24.72;69.16
43119;BME280;28729;49.838;8.650;2023-07-09T23:12:37;99909.34;;;24.60;69.34
43119;BME280;28729;49.838;8.650;2023-07-09T23:16:40;99913.38;;;24.50;70.44
43119;BME280;28729;49.838;8.650;2023-07-09T23:20:42;99905.81;;;24.42;70.72
43119;BME280;28729;49.838;8.650;2023-07-09T23:24:44;99904.16;;;24.32;71.32
43119;BME280;28729;49.838;8.650;2023-07-09T23:28:46;99896.25;;;24.26;72.51
43119;BME280;28729;49.838;8.650;2023-07-09T23:32:47;99916.66;;;24.23;72.50
43119;BME280;28729;49.838;8.650;2023-07-09T23:36:49;99908.56;;;24.21;72.75
43119;BME280;28729;49.838;8.650;2023-07-09T23:40:51;99916.50;;;24.19;73.14
43119;BME280;28729;49.838;8.650;2023-07-09T23:44:53;99919.69;;;24.09;73.97
43119;BME280;28729;49.838;8.650;2023-07-09T23:48:55;99916.09;;;24.00;74.45
43119;BME280;28729;49.838;8.650;2023-07-09T23:53:31;99912.81;;;23.98;75.88
43119;BME280;28729;49.838;8.650;2023-07-09T23:57:33;99921.06;;;23.94;76.19
